<?xml version="1.0" encoding="UTF-8" standalone="no" ?>
<gpx xmlns="http://www.topografix.com/GPX/1/1" xmlns:xsi="http://www.w3.org/2001/XMLSchema-instance" xsi:schemaLocation="http://www.topografix.com/GPX/1/1 http://www.topografix.com/GPX/1/1/gpx.xsd" version="1.1" creator="VisuGPX - https://www.visugpx.com">
  <metadata>
    <name>14318700-3 croix G2 Var</name>
  </metadata>
  <trk>
    <name><![CDATA[14318700-3 croix G2 Var]]></name>
    <trkseg>
      <trkpt lat="45.32644" lon="4.4813">
        <ele>1143</ele>
        <time>2022-02-25T13:00:44Z</time>
      </trkpt>
      <trkpt lat="45.32623" lon="4.48136">
        <ele>1142</ele>
        <time>2022-02-25T13:01:13Z</time>
      </trkpt>
      <trkpt lat="45.3261" lon="4.48131">
        <ele>1142</ele>
        <time>2022-02-25T13:01:31Z</time>
      </trkpt>
      <trkpt lat="45.326" lon="4.48144">
        <ele>1141</ele>
        <time>2022-02-25T13:01:49Z</time>
      </trkpt>
      <trkpt lat="45.32469" lon="4.48214">
        <ele>1143</ele>
        <time>2022-02-25T13:04:55Z</time>
      </trkpt>
      <trkpt lat="45.32332" lon="4.48351">
        <ele>1142</ele>
        <time>2022-02-25T13:08:39Z</time>
      </trkpt>
      <trkpt lat="45.32301" lon="4.48405">
        <ele>1135</ele>
        <time>2022-02-25T13:09:44Z</time>
      </trkpt>
      <trkpt lat="45.32257" lon="4.4843">
        <ele>1137</ele>
        <time>2022-02-25T13:10:48Z</time>
      </trkpt>
      <trkpt lat="45.32214" lon="4.48441">
        <ele>1142</ele>
        <time>2022-02-25T13:11:46Z</time>
      </trkpt>
      <trkpt lat="45.32164" lon="4.48418">
        <ele>1154</ele>
        <time>2022-02-25T13:12:56Z</time>
      </trkpt>
      <trkpt lat="45.32124" lon="4.48388">
        <ele>1165</ele>
        <time>2022-02-25T13:13:56Z</time>
      </trkpt>
      <trkpt lat="45.32099" lon="4.48347">
        <ele>1178</ele>
        <time>2022-02-25T13:14:47Z</time>
      </trkpt>
      <trkpt lat="45.32076" lon="4.48335">
        <ele>1183</ele>
        <time>2022-02-25T13:15:20Z</time>
      </trkpt>
      <trkpt lat="45.32014" lon="4.48342">
        <ele>1186</ele>
        <time>2022-02-25T13:16:43Z</time>
      </trkpt>
      <trkpt lat="45.3192" lon="4.48311">
        <ele>1208</ele>
        <time>2022-02-25T13:18:52Z</time>
      </trkpt>
      <trkpt lat="45.31886" lon="4.48269">
        <ele>1219</ele>
        <time>2022-02-25T13:19:52Z</time>
      </trkpt>
      <trkpt lat="45.31839" lon="4.48248">
        <ele>1225</ele>
        <time>2022-02-25T13:20:57Z</time>
      </trkpt>
      <trkpt lat="45.318" lon="4.48189">
        <ele>1226</ele>
        <time>2022-02-25T13:22:13Z</time>
      </trkpt>
      <trkpt lat="45.31761" lon="4.48145">
        <ele>1223</ele>
        <time>2022-02-25T13:23:20Z</time>
      </trkpt>
      <trkpt lat="45.31694" lon="4.48124">
        <ele>1220</ele>
        <time>2022-02-25T13:24:51Z</time>
      </trkpt>
      <trkpt lat="45.31635" lon="4.48062">
        <ele>1214</ele>
        <time>2022-02-25T13:26:29Z</time>
      </trkpt>
      <trkpt lat="45.31565" lon="4.47955">
        <ele>1204</ele>
        <time>2022-02-25T13:28:47Z</time>
      </trkpt>
      <trkpt lat="45.3156" lon="4.47959">
        <ele>1204</ele>
        <time>2022-02-25T13:28:54Z</time>
      </trkpt>
      <trkpt lat="45.31565" lon="4.47955">
        <ele>1204</ele>
        <time>2022-02-25T13:29:02Z</time>
      </trkpt>
      <trkpt lat="45.31536" lon="4.47916">
        <ele>1200</ele>
        <time>2022-02-25T13:29:55Z</time>
      </trkpt>
      <trkpt lat="45.31493" lon="4.47879">
        <ele>1202</ele>
        <time>2022-02-25T13:31:02Z</time>
      </trkpt>
      <trkpt lat="45.31372" lon="4.47819">
        <ele>1199</ele>
        <time>2022-02-25T13:33:53Z</time>
      </trkpt>
      <trkpt lat="45.31114" lon="4.47735">
        <ele>1195</ele>
        <time>2022-02-25T13:39:46Z</time>
      </trkpt>
      <trkpt lat="45.3107" lon="4.47727">
        <ele>1194</ele>
        <time>2022-02-25T13:40:46Z</time>
      </trkpt>
      <trkpt lat="45.30919" lon="4.47751">
        <ele>1196</ele>
        <time>2022-02-25T13:44:08Z</time>
      </trkpt>
      <trkpt lat="45.30893" lon="4.47744">
        <ele>1194</ele>
        <time>2022-02-25T13:44:44Z</time>
      </trkpt>
      <trkpt lat="45.3086" lon="4.4772">
        <ele>1191</ele>
        <time>2022-02-25T13:45:33Z</time>
      </trkpt>
      <trkpt lat="45.30819" lon="4.47675">
        <ele>1188</ele>
        <time>2022-02-25T13:46:42Z</time>
      </trkpt>
      <trkpt lat="45.30804" lon="4.47668">
        <ele>1186</ele>
        <time>2022-02-25T13:47:03Z</time>
      </trkpt>
      <trkpt lat="45.30743" lon="4.47654">
        <ele>1179</ele>
        <time>2022-02-25T13:48:26Z</time>
      </trkpt>
      <trkpt lat="45.30731" lon="4.47629">
        <ele>1179</ele>
        <time>2022-02-25T13:48:54Z</time>
      </trkpt>
      <trkpt lat="45.30722" lon="4.47624">
        <ele>1179</ele>
        <time>2022-02-25T13:49:07Z</time>
      </trkpt>
      <trkpt lat="45.30687" lon="4.47642">
        <ele>1176</ele>
        <time>2022-02-25T13:49:57Z</time>
      </trkpt>
      <trkpt lat="45.30675" lon="4.47666">
        <ele>1175</ele>
        <time>2022-02-25T13:50:24Z</time>
      </trkpt>
      <trkpt lat="45.30656" lon="4.47688">
        <ele>1175</ele>
        <time>2022-02-25T13:50:57Z</time>
      </trkpt>
      <trkpt lat="45.30563" lon="4.47754">
        <ele>1171</ele>
        <time>2022-02-25T13:53:16Z</time>
      </trkpt>
      <trkpt lat="45.3056" lon="4.47746">
        <ele>1171</ele>
        <time>2022-02-25T13:53:24Z</time>
      </trkpt>
      <trkpt lat="45.30563" lon="4.47754">
        <ele>1171</ele>
        <time>2022-02-25T13:53:33Z</time>
      </trkpt>
      <trkpt lat="45.3049" lon="4.47806">
        <ele>1169</ele>
        <time>2022-02-25T13:55:22Z</time>
      </trkpt>
      <trkpt lat="45.30452" lon="4.47855">
        <ele>1168</ele>
        <time>2022-02-25T13:56:30Z</time>
      </trkpt>
      <trkpt lat="45.30437" lon="4.47864">
        <ele>1169</ele>
        <time>2022-02-25T13:56:52Z</time>
      </trkpt>
      <trkpt lat="45.30425" lon="4.47868">
        <ele>1169</ele>
        <time>2022-02-25T13:57:08Z</time>
      </trkpt>
      <trkpt lat="45.30284" lon="4.47876">
        <ele>1173</ele>
        <time>2022-02-25T14:00:17Z</time>
      </trkpt>
      <trkpt lat="45.30254" lon="4.47874">
        <ele>1174</ele>
        <time>2022-02-25T14:00:57Z</time>
      </trkpt>
      <trkpt lat="45.30216" lon="4.47864">
        <ele>1175</ele>
        <time>2022-02-25T14:01:48Z</time>
      </trkpt>
      <trkpt lat="45.30175" lon="4.47857">
        <ele>1177</ele>
        <time>2022-02-25T14:02:43Z</time>
      </trkpt>
      <trkpt lat="45.30143" lon="4.47858">
        <ele>1177</ele>
        <time>2022-02-25T14:03:26Z</time>
      </trkpt>
      <trkpt lat="45.30086" lon="4.47867">
        <ele>1177</ele>
        <time>2022-02-25T14:04:43Z</time>
      </trkpt>
      <trkpt lat="45.30061" lon="4.47875">
        <ele>1178</ele>
        <time>2022-02-25T14:05:17Z</time>
      </trkpt>
      <trkpt lat="45.29964" lon="4.47943">
        <ele>1183</ele>
        <time>2022-02-25T14:07:41Z</time>
      </trkpt>
      <trkpt lat="45.29852" lon="4.48065">
        <ele>1186</ele>
        <time>2022-02-25T14:10:49Z</time>
      </trkpt>
      <trkpt lat="45.29854" lon="4.4806">
        <ele>1186</ele>
        <time>2022-02-25T14:10:55Z</time>
      </trkpt>
      <trkpt lat="45.29852" lon="4.48065">
        <ele>1186</ele>
        <time>2022-02-25T14:11:00Z</time>
      </trkpt>
      <trkpt lat="45.29821" lon="4.48083">
        <ele>1187</ele>
        <time>2022-02-25T14:11:45Z</time>
      </trkpt>
      <trkpt lat="45.29793" lon="4.48058">
        <ele>1190</ele>
        <time>2022-02-25T14:12:29Z</time>
      </trkpt>
      <trkpt lat="45.2977" lon="4.48036">
        <ele>1193</ele>
        <time>2022-02-25T14:13:06Z</time>
      </trkpt>
      <trkpt lat="45.29738" lon="4.47982">
        <ele>1196</ele>
        <time>2022-02-25T14:14:12Z</time>
      </trkpt>
      <trkpt lat="45.29692" lon="4.47918">
        <ele>1199</ele>
        <time>2022-02-25T14:15:38Z</time>
      </trkpt>
      <trkpt lat="45.2965" lon="4.47843">
        <ele>1206</ele>
        <time>2022-02-25T14:17:08Z</time>
      </trkpt>
      <trkpt lat="45.29642" lon="4.47731">
        <ele>1217</ele>
        <time>2022-02-25T14:18:54Z</time>
      </trkpt>
      <trkpt lat="45.29658" lon="4.47659">
        <ele>1220</ele>
        <time>2022-02-25T14:20:05Z</time>
      </trkpt>
      <trkpt lat="45.29695" lon="4.47548">
        <ele>1224</ele>
        <time>2022-02-25T14:22:00Z</time>
      </trkpt>
      <trkpt lat="45.29696" lon="4.47492">
        <ele>1229</ele>
        <time>2022-02-25T14:22:53Z</time>
      </trkpt>
      <trkpt lat="45.29732" lon="4.474">
        <ele>1231</ele>
        <time>2022-02-25T14:24:31Z</time>
      </trkpt>
      <trkpt lat="45.29732" lon="4.47375">
        <ele>1232</ele>
        <time>2022-02-25T14:24:55Z</time>
      </trkpt>
      <trkpt lat="45.29635" lon="4.47408">
        <ele>1239</ele>
        <time>2022-02-25T14:27:08Z</time>
      </trkpt>
      <trkpt lat="45.29585" lon="4.47389">
        <ele>1244</ele>
        <time>2022-02-25T14:28:17Z</time>
      </trkpt>
      <trkpt lat="45.29474" lon="4.47331">
        <ele>1256</ele>
        <time>2022-02-25T14:30:55Z</time>
      </trkpt>
      <trkpt lat="45.29436" lon="4.47337">
        <ele>1260</ele>
        <time>2022-02-25T14:31:46Z</time>
      </trkpt>
      <trkpt lat="45.29351" lon="4.47488">
        <ele>1257</ele>
        <time>2022-02-25T14:34:48Z</time>
      </trkpt>
      <trkpt lat="45.29267" lon="4.47611">
        <ele>1249</ele>
        <time>2022-02-25T14:37:28Z</time>
      </trkpt>
      <trkpt lat="45.29254" lon="4.47626">
        <ele>1249</ele>
        <time>2022-02-25T14:37:51Z</time>
      </trkpt>
      <trkpt lat="45.29231" lon="4.47646">
        <ele>1249</ele>
        <time>2022-02-25T14:38:27Z</time>
      </trkpt>
      <trkpt lat="45.29206" lon="4.47674">
        <ele>1249</ele>
        <time>2022-02-25T14:39:09Z</time>
      </trkpt>
      <trkpt lat="45.29168" lon="4.47721">
        <ele>1250</ele>
        <time>2022-02-25T14:40:16Z</time>
      </trkpt>
      <trkpt lat="45.29123" lon="4.47783">
        <ele>1249</ele>
        <time>2022-02-25T14:41:40Z</time>
      </trkpt>
      <trkpt lat="45.29113" lon="4.47812">
        <ele>1248</ele>
        <time>2022-02-25T14:42:10Z</time>
      </trkpt>
      <trkpt lat="45.29108" lon="4.47821">
        <ele>1247</ele>
        <time>2022-02-25T14:42:21Z</time>
      </trkpt>
      <trkpt lat="45.29101" lon="4.47822">
        <ele>1247</ele>
        <time>2022-02-25T14:42:31Z</time>
      </trkpt>
      <trkpt lat="45.29096" lon="4.4782">
        <ele>1247</ele>
        <time>2022-02-25T14:42:37Z</time>
      </trkpt>
      <trkpt lat="45.29086" lon="4.4784">
        <ele>1246</ele>
        <time>2022-02-25T14:43:01Z</time>
      </trkpt>
      <trkpt lat="45.29096" lon="4.47868">
        <ele>1244</ele>
        <time>2022-02-25T14:43:30Z</time>
      </trkpt>
      <trkpt lat="45.29093" lon="4.47891">
        <ele>1242</ele>
        <time>2022-02-25T14:43:52Z</time>
      </trkpt>
      <trkpt lat="45.29078" lon="4.47945">
        <ele>1238</ele>
        <time>2022-02-25T14:44:46Z</time>
      </trkpt>
      <trkpt lat="45.29083" lon="4.47965">
        <ele>1237</ele>
        <time>2022-02-25T14:45:06Z</time>
      </trkpt>
      <trkpt lat="45.29111" lon="4.47992">
        <ele>1236</ele>
        <time>2022-02-25T14:45:52Z</time>
      </trkpt>
      <trkpt lat="45.29171" lon="4.47995">
        <ele>1237</ele>
        <time>2022-02-25T14:47:12Z</time>
      </trkpt>
      <trkpt lat="45.29201" lon="4.47991">
        <ele>1236</ele>
        <time>2022-02-25T14:47:52Z</time>
      </trkpt>
      <trkpt lat="45.29222" lon="4.48001">
        <ele>1234</ele>
        <time>2022-02-25T14:48:21Z</time>
      </trkpt>
      <trkpt lat="45.2924" lon="4.48006">
        <ele>1233</ele>
        <time>2022-02-25T14:48:46Z</time>
      </trkpt>
      <trkpt lat="45.29285" lon="4.48004">
        <ele>1227</ele>
        <time>2022-02-25T14:49:46Z</time>
      </trkpt>
      <trkpt lat="45.29308" lon="4.48001">
        <ele>1225</ele>
        <time>2022-02-25T14:50:17Z</time>
      </trkpt>
      <trkpt lat="45.29316" lon="4.48005">
        <ele>1223</ele>
        <time>2022-02-25T14:50:28Z</time>
      </trkpt>
      <trkpt lat="45.29308" lon="4.48088">
        <ele>1214</ele>
        <time>2022-02-25T14:51:47Z</time>
      </trkpt>
      <trkpt lat="45.29308" lon="4.48112">
        <ele>1211</ele>
        <time>2022-02-25T14:52:09Z</time>
      </trkpt>
      <trkpt lat="45.29324" lon="4.48132">
        <ele>1206</ele>
        <time>2022-02-25T14:52:38Z</time>
      </trkpt>
      <trkpt lat="45.29333" lon="4.48134">
        <ele>1205</ele>
        <time>2022-02-25T14:52:50Z</time>
      </trkpt>
      <trkpt lat="45.2935" lon="4.48127">
        <ele>1205</ele>
        <time>2022-02-25T14:53:14Z</time>
      </trkpt>
      <trkpt lat="45.29358" lon="4.48143">
        <ele>1202</ele>
        <time>2022-02-25T14:53:32Z</time>
      </trkpt>
      <trkpt lat="45.29369" lon="4.48203">
        <ele>1199</ele>
        <time>2022-02-25T14:54:30Z</time>
      </trkpt>
      <trkpt lat="45.29367" lon="4.48253">
        <ele>1198</ele>
        <time>2022-02-25T14:55:17Z</time>
      </trkpt>
      <trkpt lat="45.29408" lon="4.48289">
        <ele>1200</ele>
        <time>2022-02-25T14:56:21Z</time>
      </trkpt>
      <trkpt lat="45.29419" lon="4.48318">
        <ele>1200</ele>
        <time>2022-02-25T14:56:52Z</time>
      </trkpt>
      <trkpt lat="45.2943" lon="4.48368">
        <ele>1196</ele>
        <time>2022-02-25T14:57:42Z</time>
      </trkpt>
      <trkpt lat="45.29452" lon="4.4844">
        <ele>1188</ele>
        <time>2022-02-25T14:58:55Z</time>
      </trkpt>
      <trkpt lat="45.2947" lon="4.48481">
        <ele>1184</ele>
        <time>2022-02-25T14:59:41Z</time>
      </trkpt>
      <trkpt lat="45.29482" lon="4.48487">
        <ele>1183</ele>
        <time>2022-02-25T14:59:58Z</time>
      </trkpt>
      <trkpt lat="45.29504" lon="4.48524">
        <ele>1179</ele>
        <time>2022-02-25T15:00:43Z</time>
      </trkpt>
      <trkpt lat="45.29509" lon="4.48635">
        <ele>1170</ele>
        <time>2022-02-25T15:02:28Z</time>
      </trkpt>
      <trkpt lat="45.29521" lon="4.48664">
        <ele>1169</ele>
        <time>2022-02-25T15:02:59Z</time>
      </trkpt>
      <trkpt lat="45.29534" lon="4.48706">
        <ele>1167</ele>
        <time>2022-02-25T15:03:42Z</time>
      </trkpt>
      <trkpt lat="45.29555" lon="4.48805">
        <ele>1159</ele>
        <time>2022-02-25T15:05:19Z</time>
      </trkpt>
      <trkpt lat="45.29568" lon="4.48833">
        <ele>1156</ele>
        <time>2022-02-25T15:05:51Z</time>
      </trkpt>
      <trkpt lat="45.29578" lon="4.48848">
        <ele>1155</ele>
        <time>2022-02-25T15:06:10Z</time>
      </trkpt>
      <trkpt lat="45.29593" lon="4.48855">
        <ele>1154</ele>
        <time>2022-02-25T15:06:31Z</time>
      </trkpt>
      <trkpt lat="45.2961" lon="4.48849">
        <ele>1154</ele>
        <time>2022-02-25T15:06:55Z</time>
      </trkpt>
      <trkpt lat="45.29626" lon="4.4884">
        <ele>1155</ele>
        <time>2022-02-25T15:07:18Z</time>
      </trkpt>
      <trkpt lat="45.2973" lon="4.488">
        <ele>1158</ele>
        <time>2022-02-25T15:09:41Z</time>
      </trkpt>
      <trkpt lat="45.2977" lon="4.48786">
        <ele>1159</ele>
        <time>2022-02-25T15:10:36Z</time>
      </trkpt>
      <trkpt lat="45.29823" lon="4.48801">
        <ele>1161</ele>
        <time>2022-02-25T15:11:48Z</time>
      </trkpt>
      <trkpt lat="45.2985" lon="4.48794">
        <ele>1162</ele>
        <time>2022-02-25T15:12:25Z</time>
      </trkpt>
      <trkpt lat="45.29881" lon="4.48797">
        <ele>1163</ele>
        <time>2022-02-25T15:13:06Z</time>
      </trkpt>
      <trkpt lat="45.29902" lon="4.48802">
        <ele>1164</ele>
        <time>2022-02-25T15:13:35Z</time>
      </trkpt>
      <trkpt lat="45.29946" lon="4.4882">
        <ele>1167</ele>
        <time>2022-02-25T15:14:36Z</time>
      </trkpt>
      <trkpt lat="45.29957" lon="4.48822">
        <ele>1168</ele>
        <time>2022-02-25T15:14:51Z</time>
      </trkpt>
      <trkpt lat="45.29976" lon="4.48819">
        <ele>1169</ele>
        <time>2022-02-25T15:15:16Z</time>
      </trkpt>
      <trkpt lat="45.29992" lon="4.4882">
        <ele>1170</ele>
        <time>2022-02-25T15:15:38Z</time>
      </trkpt>
      <trkpt lat="45.30002" lon="4.48824">
        <ele>1171</ele>
        <time>2022-02-25T15:15:52Z</time>
      </trkpt>
      <trkpt lat="45.30016" lon="4.48835">
        <ele>1172</ele>
        <time>2022-02-25T15:16:13Z</time>
      </trkpt>
      <trkpt lat="45.30033" lon="4.48844">
        <ele>1174</ele>
        <time>2022-02-25T15:16:37Z</time>
      </trkpt>
      <trkpt lat="45.30041" lon="4.48852">
        <ele>1174</ele>
        <time>2022-02-25T15:16:50Z</time>
      </trkpt>
      <trkpt lat="45.30058" lon="4.48883">
        <ele>1176</ele>
        <time>2022-02-25T15:17:27Z</time>
      </trkpt>
      <trkpt lat="45.30067" lon="4.48887">
        <ele>1177</ele>
        <time>2022-02-25T15:17:40Z</time>
      </trkpt>
      <trkpt lat="45.30077" lon="4.48889">
        <ele>1179</ele>
        <time>2022-02-25T15:17:53Z</time>
      </trkpt>
      <trkpt lat="45.30101" lon="4.48905">
        <ele>1181</ele>
        <time>2022-02-25T15:18:28Z</time>
      </trkpt>
      <trkpt lat="45.30121" lon="4.48926">
        <ele>1182</ele>
        <time>2022-02-25T15:19:02Z</time>
      </trkpt>
      <trkpt lat="45.30136" lon="4.48929">
        <ele>1183</ele>
        <time>2022-02-25T15:19:22Z</time>
      </trkpt>
      <trkpt lat="45.30128" lon="4.48945">
        <ele>1183</ele>
        <time>2022-02-25T15:19:40Z</time>
      </trkpt>
      <trkpt lat="45.30136" lon="4.48929">
        <ele>1183</ele>
        <time>2022-02-25T15:19:59Z</time>
      </trkpt>
      <trkpt lat="45.30144" lon="4.48913">
        <ele>1184</ele>
        <time>2022-02-25T15:20:17Z</time>
      </trkpt>
      <trkpt lat="45.30163" lon="4.48846">
        <ele>1183</ele>
        <time>2022-02-25T15:21:25Z</time>
      </trkpt>
      <trkpt lat="45.30194" lon="4.48784">
        <ele>1178</ele>
        <time>2022-02-25T15:22:36Z</time>
      </trkpt>
      <trkpt lat="45.30215" lon="4.48722">
        <ele>1175</ele>
        <time>2022-02-25T15:23:41Z</time>
      </trkpt>
      <trkpt lat="45.30224" lon="4.48705">
        <ele>1175</ele>
        <time>2022-02-25T15:24:01Z</time>
      </trkpt>
      <trkpt lat="45.30231" lon="4.48677">
        <ele>1175</ele>
        <time>2022-02-25T15:24:29Z</time>
      </trkpt>
      <trkpt lat="45.30256" lon="4.48609">
        <ele>1177</ele>
        <time>2022-02-25T15:25:41Z</time>
      </trkpt>
      <trkpt lat="45.30257" lon="4.48597">
        <ele>1177</ele>
        <time>2022-02-25T15:25:52Z</time>
      </trkpt>
      <trkpt lat="45.30273" lon="4.48547">
        <ele>1178</ele>
        <time>2022-02-25T15:26:44Z</time>
      </trkpt>
      <trkpt lat="45.30286" lon="4.48515">
        <ele>1178</ele>
        <time>2022-02-25T15:27:18Z</time>
      </trkpt>
      <trkpt lat="45.30326" lon="4.48398">
        <ele>1178</ele>
        <time>2022-02-25T15:29:21Z</time>
      </trkpt>
      <trkpt lat="45.30346" lon="4.48344">
        <ele>1177</ele>
        <time>2022-02-25T15:30:18Z</time>
      </trkpt>
      <trkpt lat="45.30381" lon="4.48219">
        <ele>1175</ele>
        <time>2022-02-25T15:32:24Z</time>
      </trkpt>
      <trkpt lat="45.30407" lon="4.48117">
        <ele>1173</ele>
        <time>2022-02-25T15:34:06Z</time>
      </trkpt>
      <trkpt lat="45.30424" lon="4.48045">
        <ele>1173</ele>
        <time>2022-02-25T15:35:17Z</time>
      </trkpt>
      <trkpt lat="45.30439" lon="4.47974">
        <ele>1171</ele>
        <time>2022-02-25T15:36:27Z</time>
      </trkpt>
      <trkpt lat="45.30446" lon="4.47905">
        <ele>1170</ele>
        <time>2022-02-25T15:37:32Z</time>
      </trkpt>
      <trkpt lat="45.30452" lon="4.47865">
        <ele>1169</ele>
        <time>2022-02-25T15:38:11Z</time>
      </trkpt>
      <trkpt lat="45.30452" lon="4.47855">
        <ele>1168</ele>
        <time>2022-02-25T15:38:20Z</time>
      </trkpt>
      <trkpt lat="45.30457" lon="4.4786">
        <ele>1169</ele>
        <time>2022-02-25T15:38:28Z</time>
      </trkpt>
      <trkpt lat="45.30545" lon="4.47875">
        <ele>1168</ele>
        <time>2022-02-25T15:40:26Z</time>
      </trkpt>
      <trkpt lat="45.30644" lon="4.47952">
        <ele>1167</ele>
        <time>2022-02-25T15:42:57Z</time>
      </trkpt>
      <trkpt lat="45.30688" lon="4.47967">
        <ele>1166</ele>
        <time>2022-02-25T15:43:57Z</time>
      </trkpt>
      <trkpt lat="45.30742" lon="4.47969">
        <ele>1167</ele>
        <time>2022-02-25T15:45:09Z</time>
      </trkpt>
      <trkpt lat="45.30795" lon="4.48003">
        <ele>1168</ele>
        <time>2022-02-25T15:46:27Z</time>
      </trkpt>
      <trkpt lat="45.30911" lon="4.48028">
        <ele>1177</ele>
        <time>2022-02-25T15:49:04Z</time>
      </trkpt>
      <trkpt lat="45.31077" lon="4.48102">
        <ele>1184</ele>
        <time>2022-02-25T15:52:56Z</time>
      </trkpt>
      <trkpt lat="45.31117" lon="4.48105">
        <ele>1186</ele>
        <time>2022-02-25T15:53:49Z</time>
      </trkpt>
      <trkpt lat="45.31077" lon="4.48144">
        <ele>1184</ele>
        <time>2022-02-25T15:54:54Z</time>
      </trkpt>
      <trkpt lat="45.31018" lon="4.48242">
        <ele>1175</ele>
        <time>2022-02-25T15:56:55Z</time>
      </trkpt>
      <trkpt lat="45.31008" lon="4.48298">
        <ele>1169</ele>
        <time>2022-02-25T15:57:49Z</time>
      </trkpt>
      <trkpt lat="45.31021" lon="4.48337">
        <ele>1166</ele>
        <time>2022-02-25T15:58:30Z</time>
      </trkpt>
      <trkpt lat="45.31037" lon="4.48365">
        <ele>1165</ele>
        <time>2022-02-25T15:59:04Z</time>
      </trkpt>
      <trkpt lat="45.31038" lon="4.48398">
        <ele>1163</ele>
        <time>2022-02-25T15:59:35Z</time>
      </trkpt>
      <trkpt lat="45.31026" lon="4.4857">
        <ele>1146</ele>
        <time>2022-02-25T16:02:17Z</time>
      </trkpt>
      <trkpt lat="45.3103" lon="4.48606">
        <ele>1142</ele>
        <time>2022-02-25T16:02:51Z</time>
      </trkpt>
      <trkpt lat="45.31066" lon="4.48672">
        <ele>1133</ele>
        <time>2022-02-25T16:04:09Z</time>
      </trkpt>
      <trkpt lat="45.31154" lon="4.48745">
        <ele>1128</ele>
        <time>2022-02-25T16:06:25Z</time>
      </trkpt>
      <trkpt lat="45.31184" lon="4.48787">
        <ele>1119</ele>
        <time>2022-02-25T16:07:22Z</time>
      </trkpt>
      <trkpt lat="45.31249" lon="4.48848">
        <ele>1109</ele>
        <time>2022-02-25T16:09:05Z</time>
      </trkpt>
      <trkpt lat="45.31267" lon="4.48887">
        <ele>1103</ele>
        <time>2022-02-25T16:09:49Z</time>
      </trkpt>
      <trkpt lat="45.31283" lon="4.49031">
        <ele>1088</ele>
        <time>2022-02-25T16:12:06Z</time>
      </trkpt>
      <trkpt lat="45.31279" lon="4.49161">
        <ele>1078</ele>
        <time>2022-02-25T16:14:08Z</time>
      </trkpt>
      <trkpt lat="45.31272" lon="4.49203">
        <ele>1075</ele>
        <time>2022-02-25T16:14:49Z</time>
      </trkpt>
      <trkpt lat="45.3128" lon="4.49249">
        <ele>1074</ele>
        <time>2022-02-25T16:15:33Z</time>
      </trkpt>
      <trkpt lat="45.31279" lon="4.49274">
        <ele>1073</ele>
        <time>2022-02-25T16:15:57Z</time>
      </trkpt>
      <trkpt lat="45.31285" lon="4.49308">
        <ele>1073</ele>
        <time>2022-02-25T16:16:30Z</time>
      </trkpt>
      <trkpt lat="45.31312" lon="4.49367">
        <ele>1070</ele>
        <time>2022-02-25T16:17:36Z</time>
      </trkpt>
      <trkpt lat="45.31397" lon="4.49416">
        <ele>1064</ele>
        <time>2022-02-25T16:19:38Z</time>
      </trkpt>
      <trkpt lat="45.31408" lon="4.49441">
        <ele>1062</ele>
        <time>2022-02-25T16:20:06Z</time>
      </trkpt>
      <trkpt lat="45.31406" lon="4.49511">
        <ele>1056</ele>
        <time>2022-02-25T16:21:11Z</time>
      </trkpt>
      <trkpt lat="45.31428" lon="4.49568">
        <ele>1048</ele>
        <time>2022-02-25T16:22:12Z</time>
      </trkpt>
      <trkpt lat="45.31427" lon="4.49624">
        <ele>1043</ele>
        <time>2022-02-25T16:23:05Z</time>
      </trkpt>
      <trkpt lat="45.31431" lon="4.49663">
        <ele>1039</ele>
        <time>2022-02-25T16:23:42Z</time>
      </trkpt>
      <trkpt lat="45.31455" lon="4.4972">
        <ele>1037</ele>
        <time>2022-02-25T16:24:44Z</time>
      </trkpt>
      <trkpt lat="45.31458" lon="4.49756">
        <ele>1036</ele>
        <time>2022-02-25T16:25:18Z</time>
      </trkpt>
      <trkpt lat="45.31458" lon="4.49791">
        <ele>1035</ele>
        <time>2022-02-25T16:25:51Z</time>
      </trkpt>
      <trkpt lat="45.31488" lon="4.49801">
        <ele>1037</ele>
        <time>2022-02-25T16:26:32Z</time>
      </trkpt>
      <trkpt lat="45.31506" lon="4.49803">
        <ele>1038</ele>
        <time>2022-02-25T16:26:56Z</time>
      </trkpt>
      <trkpt lat="45.31515" lon="4.49789">
        <ele>1039</ele>
        <time>2022-02-25T16:27:14Z</time>
      </trkpt>
      <trkpt lat="45.31522" lon="4.49768">
        <ele>1040</ele>
        <time>2022-02-25T16:27:36Z</time>
      </trkpt>
      <trkpt lat="45.31561" lon="4.49726">
        <ele>1043</ele>
        <time>2022-02-25T16:28:41Z</time>
      </trkpt>
      <trkpt lat="45.31592" lon="4.49703">
        <ele>1045</ele>
        <time>2022-02-25T16:29:28Z</time>
      </trkpt>
      <trkpt lat="45.31675" lon="4.49623">
        <ele>1050</ele>
        <time>2022-02-25T16:31:42Z</time>
      </trkpt>
      <trkpt lat="45.31704" lon="4.4957">
        <ele>1053</ele>
        <time>2022-02-25T16:32:45Z</time>
      </trkpt>
      <trkpt lat="45.31719" lon="4.49529">
        <ele>1057</ele>
        <time>2022-02-25T16:33:28Z</time>
      </trkpt>
      <trkpt lat="45.31727" lon="4.49513">
        <ele>1059</ele>
        <time>2022-02-25T16:33:47Z</time>
      </trkpt>
      <trkpt lat="45.31767" lon="4.4945">
        <ele>1068</ele>
        <time>2022-02-25T16:35:06Z</time>
      </trkpt>
      <trkpt lat="45.31783" lon="4.49417">
        <ele>1073</ele>
        <time>2022-02-25T16:35:44Z</time>
      </trkpt>
      <trkpt lat="45.31847" lon="4.49259">
        <ele>1093</ele>
        <time>2022-02-25T16:38:35Z</time>
      </trkpt>
      <trkpt lat="45.31879" lon="4.49198">
        <ele>1093</ele>
        <time>2022-02-25T16:39:46Z</time>
      </trkpt>
      <trkpt lat="45.31903" lon="4.49128">
        <ele>1098</ele>
        <time>2022-02-25T16:40:59Z</time>
      </trkpt>
      <trkpt lat="45.3199" lon="4.48935">
        <ele>1111</ele>
        <time>2022-02-25T16:44:35Z</time>
      </trkpt>
      <trkpt lat="45.32033" lon="4.48859">
        <ele>1113</ele>
        <time>2022-02-25T16:46:06Z</time>
      </trkpt>
      <trkpt lat="45.32054" lon="4.48805">
        <ele>1115</ele>
        <time>2022-02-25T16:47:04Z</time>
      </trkpt>
      <trkpt lat="45.32114" lon="4.48711">
        <ele>1119</ele>
        <time>2022-02-25T16:49:03Z</time>
      </trkpt>
      <trkpt lat="45.32146" lon="4.48646">
        <ele>1125</ele>
        <time>2022-02-25T16:50:18Z</time>
      </trkpt>
      <trkpt lat="45.32154" lon="4.48611">
        <ele>1128</ele>
        <time>2022-02-25T16:50:52Z</time>
      </trkpt>
      <trkpt lat="45.3217" lon="4.48589">
        <ele>1129</ele>
        <time>2022-02-25T16:51:22Z</time>
      </trkpt>
      <trkpt lat="45.32204" lon="4.48582">
        <ele>1125</ele>
        <time>2022-02-25T16:52:08Z</time>
      </trkpt>
      <trkpt lat="45.32246" lon="4.48535">
        <ele>1126</ele>
        <time>2022-02-25T16:53:19Z</time>
      </trkpt>
      <trkpt lat="45.32301" lon="4.48405">
        <ele>1135</ele>
        <time>2022-02-25T16:55:41Z</time>
      </trkpt>
      <trkpt lat="45.32332" lon="4.48351">
        <ele>1142</ele>
        <time>2022-02-25T16:56:47Z</time>
      </trkpt>
      <trkpt lat="45.32469" lon="4.48214">
        <ele>1143</ele>
        <time>2022-02-25T17:00:30Z</time>
      </trkpt>
      <trkpt lat="45.32575" lon="4.48159">
        <ele>1140</ele>
        <time>2022-02-25T17:03:01Z</time>
      </trkpt>
      <trkpt lat="45.32589" lon="4.48147">
        <ele>1141</ele>
        <time>2022-02-25T17:03:23Z</time>
      </trkpt>
      <trkpt lat="45.32595" lon="4.48135">
        <ele>1142</ele>
        <time>2022-02-25T17:03:36Z</time>
      </trkpt>
      <trkpt lat="45.326" lon="4.48119">
        <ele>1143</ele>
        <time>2022-02-25T17:03:53Z</time>
      </trkpt>
      <trkpt lat="45.32612" lon="4.48109">
        <ele>1143</ele>
        <time>2022-02-25T17:04:11Z</time>
      </trkpt>
      <trkpt lat="45.32622" lon="4.48109">
        <ele>1143</ele>
        <time>2022-02-25T17:04:25Z</time>
      </trkpt>
      <trkpt lat="45.3265" lon="4.48089">
        <ele>1143</ele>
        <time>2022-02-25T17:05:07Z</time>
      </trkpt>
    </trkseg>
  </trk>
</gpx>